Terminal Aerodrome Forecast
Issued by NWS Shreveport, LA

Home | Current Version | Previous Version | Text Only | Print | Product List | Glossary On
Versions: 1 2 3 4 5 6 7 8 9 10 11 12 13 14 15 16 17 18
000
FTUS44 KSHV 250540
TAFMLU
TAF
KMLU 250540Z 2506/2606 VRB03KT P6SM SCT250
      TEMPO 2509/2513 00000KT 4SM BR
     FM251300 VRB03KT P6SM BKN250
     FM251500 18004KT P6SM SCT100 BKN250
     FM252100 23006KT P6SM SCT050 SCT080 BKN250
     FM260000 25006KT P6SM BKN050 OVC250
     FM260300 34010KT P6SM VCSH OVC040=

USA.gov is the U.S. government's official web portal to all federal, state and local government web resources and services.